Munson Island, Florida
Current Conditions -  °F | °C
As of 9:53 PM on Wednesday 22 Oct 2014 (Local Time) from KNQX Reporting Station
Overcast Overcast  
Wind Chill: 23°   Ceiling: 11000
Heat Index: 23°   Visibility: 10mi
Dew Point: 22°   Wind: 8mph
Humidity: 96%   Direction: 60°ENE
Pressure: 29.91"   Gusts: NA
Location:  24.5796°N, 81.6849°W
Report Text: KNQX 230153Z 06007KT 10SM FEW020 OVC110 23/22 A2991 RMK AO2 RAE49 SLP128 P0000 T02280222 $
Loading
Personal Weather Stations






























Interactive Weather Map
Tropical Storm Tracking
New forecast layout! Learn more

10-Day Weather Forecast

Advertisements
Track Severe Weather on mobile